Advance, Missouri
Current Conditions -  °F | °C
As of 8:53 PM on Monday 26 Jan 2015 (Local Time) from KCGI Reporting Station
Clear Clear  
Wind Chill: -1°   Ceiling: Unl
Heat Index: -1°   Visibility: 10mi
Dew Point: -2°   Wind: 3mph
Humidity: 92%   Direction: 100°E
Pressure: 29.94"   Gusts: NA
Location:  37.1°N, 89.91°W
Report Text: KCGI 270253Z AUTO 10003KT 10SM CLR M01/M02 A2994 RMK AO2 SLP139 T10061017 56007 TSNO
Loading
Personal Weather Stations






























Interactive Weather Map New forecast layout! Learn more

10-Day Weather Forecast

Advertisements
Track Severe Weather on mobile